sensor_id;sensor_type;location;lat;lon;timestamp;pressure;altitude;pressure_sealevel;temperature;humidity
45071;BME280;30836;48.906;9.140;2022-10-16T00:00:31;984.87;;;25.14;46.63
45071;BME280;30836;48.906;9.140;2022-10-16T00:01:31;984.87;;;25.12;46.55
45071;BME280;30836;48.906;9.140;2022-10-16T00:02:32;984.85;;;25.12;46.65
45071;BME280;30836;48.906;9.140;2022-10-16T00:03:32;984.79;;;25.12;46.67
45071;BME280;30836;48.906;9.140;2022-10-16T00:04:33;984.81;;;25.11;46.60
45071;BME280;30836;48.906;9.140;2022-10-16T00:05:37;984.79;;;25.12;46.63
45071;BME280;30836;48.906;9.140;2022-10-16T00:06:39;984.79;;;25.12;46.66
45071;BME280;30836;48.906;9.140;2022-10-16T00:07:40;984.77;;;25.13;46.63
45071;BME280;30836;48.906;9.140;2022-10-16T00:08:40;984.74;;;25.15;46.51
45071;BME280;30836;48.906;9.140;2022-10-16T00:09:41;984.74;;;25.16;46.57
45071;BME280;30836;48.906;9.140;2022-10-16T00:10:41;984.72;;;25.17;46.54
45071;BME280;30836;48.906;9.140;2022-10-16T00:11:42;984.61;;;25.19;46.53
45071;BME280;30836;48.906;9.140;2022-10-16T00:12:42;984.61;;;25.22;46.42
45071;BME280;30836;48.906;9.140;2022-10-16T00:13:43;984.61;;;25.24;46.41
45071;BME280;30836;48.906;9.140;2022-10-16T00:14:45;984.61;;;25.25;46.29
45071;BME280;30836;48.906;9.140;2022-10-16T00:15:45;984.72;;;25.25;46.29
45071;BME280;30836;48.906;9.140;2022-10-16T00:16:46;984.70;;;25.25;46.42
45071;BME280;30836;48.906;9.140;2022-10-16T00:17:46;984.72;;;25.23;46.51
45071;BME280;30836;48.906;9.140;2022-10-16T00:18:47;984.72;;;25.22;46.43
45071;BME280;30836;48.906;9.140;2022-10-16T00:18:57;984.72;;;25.20;46.41
45071;BME280;30836;48.906;9.140;2022-10-16T00:19:57;984.72;;;25.20;46.43
45071;BME280;30836;48.906;9.140;2022-10-16T00:21:02;984.61;;;25.15;46.69
45071;BME280;30836;48.906;9.140;2022-10-16T00:22:05;984.61;;;25.03;46.93
45071;BME280;30836;48.906;9.140;2022-10-16T00:23:05;984.70;;;24.92;47.15
45071;BME280;30836;48.906;9.140;2022-10-16T00:24:07;984.57;;;24.82;47.31
45071;BME280;30836;48.906;9.140;2022-10-16T00:25:09;984.54;;;24.73;47.52
45071;BME280;30836;48.906;9.140;2022-10-16T00:26:11;984.54;;;24.65;47.78
45071;BME280;30836;48.906;9.140;2022-10-16T00:27:13;984.52;;;24.59;47.77
45071;BME280;30836;48.906;9.140;2022-10-16T00:28:13;984.54;;;24.54;47.89
45071;BME280;30836;48.906;9.140;2022-10-16T00:29:14;984.54;;;24.48;48.01
45071;BME280;30836;48.906;9.140;2022-10-16T00:30:14;984.52;;;24.42;48.13
45071;BME280;30836;48.906;9.140;2022-10-16T00:31:15;984.52;;;24.37;48.19
45071;BME280;30836;48.906;9.140;2022-10-16T00:32:17;984.54;;;24.32;48.41
45071;BME280;30836;48.906;9.140;2022-10-16T00:33:18;984.54;;;24.29;48.37
45071;BME280;30836;48.906;9.140;2022-10-16T00:34:19;984.57;;;24.26;48.49
45071;BME280;30836;48.906;9.140;2022-10-16T00:35:19;984.61;;;24.22;48.51
45071;BME280;30836;48.906;9.140;2022-10-16T00:36:21;984.61;;;24.18;48.55
45071;BME280;30836;48.906;9.140;2022-10-16T00:37:23;984.61;;;24.14;48.64
45071;BME280;30836;48.906;9.140;2022-10-16T00:38:23;984.59;;;24.12;48.65
45071;BME280;30836;48.906;9.140;2022-10-16T00:39:23;984.61;;;24.10;48.72
45071;BME280;30836;48.906;9.140;2022-10-16T00:40:24;984.70;;;24.08;48.73
45071;BME280;30836;48.906;9.140;2022-10-16T00:41:25;984.72;;;24.06;48.78
45071;BME280;30836;48.906;9.140;2022-10-16T00:42:26;984.76;;;24.07;48.69
45071;BME280;30836;48.906;9.140;2022-10-16T00:45:42;984.79;;;24.39;47.79
45071;BME280;30836;48.906;9.140;2022-10-16T00:46:43;984.79;;;24.50;47.62
45071;BME280;30836;48.906;9.140;2022-10-16T00:47:43;984.81;;;24.59;47.27
45071;BME280;30836;48.906;9.140;2022-10-16T00:48:52;984.79;;;24.66;47.24
45071;BME280;30836;48.906;9.140;2022-10-16T00:50:01;984.79;;;24.72;47.15
45071;BME280;30836;48.906;9.140;2022-10-16T00:51:07;984.76;;;24.78;47.05
45071;BME280;30836;48.906;9.140;2022-10-16T00:52:08;984.77;;;24.83;46.93
45071;BME280;30836;48.906;9.140;2022-10-16T00:53:10;984.76;;;24.89;46.80
45071;BME280;30836;48.906;9.140;2022-10-16T00:55:19;984.77;;;24.94;46.67
45071;BME280;30836;48.906;9.140;2022-10-16T00:56:20;984.81;;;24.93;46.68
45071;BME280;30836;48.906;9.140;2022-10-16T00:57:21;984.81;;;24.92;46.68
45071;BME280;30836;48.906;9.140;2022-10-16T00:58:21;984.79;;;24.94;46.58
45071;BME280;30836;48.906;9.140;2022-10-16T00:59:26;984.79;;;24.96;46.51
45071;BME280;30836;48.906;9.140;2022-10-16T01:00:32;984.79;;;24.97;46.53
45071;BME280;30836;48.906;9.140;2022-10-16T01:01:32;984.77;;;24.97;46.54
45071;BME280;30836;48.906;9.140;2022-10-16T01:02:33;984.76;;;24.97;46.58
45071;BME280;30836;48.906;9.140;2022-10-16T01:03:34;984.77;;;24.98;46.53
45071;BME280;30836;48.906;9.140;2022-10-16T01:04:37;984.77;;;24.99;46.55
45071;BME280;30836;48.906;9.140;2022-10-16T01:05:45;984.85;;;24.99;46.51
45071;BME280;30836;48.906;9.140;2022-10-16T01:07:41;984.85;;;25.01;46.47
45071;BME280;30836;48.906;9.140;2022-10-16T01:08:14;984.89;;;25.05;46.39
45071;BME280;30836;48.906;9.140;2022-10-16T01:11:49;984.91;;;25.17;46.09
45071;BME280;30836;48.906;9.140;2022-10-16T01:12:51;984.91;;;25.19;46.04
45071;BME280;30836;48.906;9.140;2022-10-16T01:14:00;984.91;;;25.21;46.04
45071;BME280;30836;48.906;9.140;2022-10-16T01:15:17;984.91;;;25.23;46.00
45071;BME280;30836;48.906;9.140;2022-10-16T01:19:50;984.85;;;25.27;45.95
45071;BME280;30836;48.906;9.140;2022-10-16T01:20:56;984.85;;;25.27;45.90
45071;BME280;30836;48.906;9.140;2022-10-16T01:22:01;984.85;;;25.28;45.91
45071;BME280;30836;48.906;9.140;2022-10-16T01:25:22;984.85;;;25.25;46.10
45071;BME280;30836;48.906;9.140;2022-10-16T01:27:31;984.83;;;25.23;46.11
45071;BME280;30836;48.906;9.140;2022-10-16T01:29:50;984.83;;;25.22;46.05
45071;BME280;30836;48.906;9.140;2022-10-16T01:30:59;984.83;;;25.23;46.03
45071;BME280;30836;48.906;9.140;2022-10-16T01:32:04;984.85;;;25.23;46.07
45071;BME280;30836;48.906;9.140;2022-10-16T01:35:29;984.87;;;25.22;46.06
45071;BME280;30836;48.906;9.140;2022-10-16T01:36:37;984.89;;;25.21;46.03
45071;BME280;30836;48.906;9.140;2022-10-16T01:37:46;984.87;;;25.22;46.06
45071;BME280;30836;48.906;9.140;2022-10-16T01:38:51;984.89;;;25.23;46.03
45071;BME280;30836;48.906;9.140;2022-10-16T01:39:54;984.87;;;25.24;45.95
45071;BME280;30836;48.906;9.140;2022-10-16T01:42:16;984.89;;;25.23;46.07
45071;BME280;30836;48.906;9.140;2022-10-16T01:44:29;984.87;;;25.21;46.07
45071;BME280;30836;48.906;9.140;2022-10-16T01:45:32;984.85;;;25.22;46.03
45071;BME280;30836;48.906;9.140;2022-10-16T01:46:36;984.81;;;25.22;45.98
45071;BME280;30836;48.906;9.140;2022-10-16T01:47:39;984.79;;;25.23;46.05
45071;BME280;30836;48.906;9.140;2022-10-16T01:48:40;984.77;;;25.23;46.02
45071;BME280;30836;48.906;9.140;2022-10-16T01:49:41;984.81;;;25.23;46.07
45071;BME280;30836;48.906;9.140;2022-10-16T01:50:48;984.83;;;25.22;46.12
45071;BME280;30836;48.906;9.140;2022-10-16T01:51:55;984.87;;;25.19;46.19
45071;BME280;30836;48.906;9.140;2022-10-16T01:52:59;984.87;;;25.17;46.19
45071;BME280;30836;48.906;9.140;2022-10-16T01:54:01;984.85;;;25.17;46.15
45071;BME280;30836;48.906;9.140;2022-10-16T01:55:03;984.83;;;25.16;46.20
45071;BME280;30836;48.906;9.140;2022-10-16T01:55:17;984.79;;;25.15;46.17
45071;BME280;30836;48.906;9.140;2022-10-16T01:56:22;984.77;;;25.13;46.26
45071;BME280;30836;48.906;9.140;2022-10-16T01:57:25;984.77;;;25.06;46.65
45071;BME280;30836;48.906;9.140;2022-10-16T01:58:28;984.74;;;24.95;46.91
45071;BME280;30836;48.906;9.140;2022-10-16T01:58:49;984.76;;;24.77;46.96
45071;BME280;30836;48.906;9.140;2022-10-16T01:59:48;984.70;;;24.77;47.17
45071;BME280;30836;48.906;9.140;2022-10-16T02:00:53;984.59;;;24.73;47.33
45071;BME280;30836;48.906;9.140;2022-10-16T02:01:55;984.61;;;24.67;47.50
45071;BME280;30836;48.906;9.140;2022-10-16T02:02:59;984.70;;;24.64;47.46
45071;BME280;30836;48.906;9.140;2022-10-16T02:04:09;984.70;;;24.67;47.26
45071;BME280;30836;48.906;9.140;2022-10-16T02:06:15;984.76;;;24.83;46.82
45071;BME280;30836;48.906;9.140;2022-10-16T02:07:16;984.74;;;24.91;46.70
45071;BME280;30836;48.906;9.140;2022-10-16T02:08:16;984.77;;;24.97;46.50
45071;BME280;30836;48.906;9.140;2022-10-16T02:09:17;984.76;;;25.02;46.46
45071;BME280;30836;48.906;9.140;2022-10-16T02:10:18;984.74;;;25.05;46.39
45071;BME280;30836;48.906;9.140;2022-10-16T02:11:18;984.76;;;25.09;46.32
45071;BME280;30836;48.906;9.140;2022-10-16T02:12:22;984.81;;;25.11;46.28
45071;BME280;30836;48.906;9.140;2022-10-16T02:14:37;984.77;;;24.99;46.72
45071;BME280;30836;48.906;9.140;2022-10-16T02:15:39;984.77;;;24.86;47.03
45071;BME280;30836;48.906;9.140;2022-10-16T02:16:43;984.76;;;24.73;47.32
45071;BME280;30836;48.906;9.140;2022-10-16T02:17:45;984.76;;;24.64;47.47
45071;BME280;30836;48.906;9.140;2022-10-16T02:18:46;984.76;;;24.56;47.57
45071;BME280;30836;48.906;9.140;2022-10-16T02:19:47;984.72;;;24.48;47.76
45071;BME280;30836;48.906;9.140;2022-10-16T02:20:53;984.72;;;24.41;47.94
45071;BME280;30836;48.906;9.140;2022-10-16T02:22:02;984.76;;;24.36;47.92
45071;BME280;30836;48.906;9.140;2022-10-16T02:23:04;984.72;;;24.32;48.10
45071;BME280;30836;48.906;9.140;2022-10-16T02:25:32;984.74;;;24.29;48.15
45071;BME280;30836;48.906;9.140;2022-10-16T02:26:31;984.76;;;24.26;48.24
45071;BME280;30836;48.906;9.140;2022-10-16T02:28:46;984.74;;;24.21;48.41
45071;BME280;30836;48.906;9.140;2022-10-16T02:29:53;984.74;;;24.20;48.42
45071;BME280;30836;48.906;9.140;2022-10-16T02:31:01;984.74;;;24.20;48.36
45071;BME280;30836;48.906;9.140;2022-10-16T02:32:04;984.77;;;24.20;48.41
45071;BME280;30836;48.906;9.140;2022-10-16T02:33:09;984.76;;;24.15;48.77
45071;BME280;30836;48.906;9.140;2022-10-16T02:34:11;984.77;;;24.08;48.80
45071;BME280;30836;48.906;9.140;2022-10-16T02:35:13;984.77;;;24.04;48.86
45071;BME280;30836;48.906;9.140;2022-10-16T02:36:17;984.77;;;24.03;48.83
45071;BME280;30836;48.906;9.140;2022-10-16T02:37:17;984.79;;;24.02;48.78
45071;BME280;30836;48.906;9.140;2022-10-16T02:38:18;984.85;;;24.03;48.74
45071;BME280;30836;48.906;9.140;2022-10-16T02:39:21;984.85;;;24.05;48.73
45071;BME280;30836;48.906;9.140;2022-10-16T02:40:22;984.85;;;24.05;48.73
45071;BME280;30836;48.906;9.140;2022-10-16T02:41:24;984.83;;;24.04;48.79
45071;BME280;30836;48.906;9.140;2022-10-16T02:42:29;984.81;;;24.02;48.88
45071;BME280;30836;48.906;9.140;2022-10-16T02:43:33;984.81;;;23.99;48.90
45071;BME280;30836;48.906;9.140;2022-10-16T02:44:34;984.81;;;23.97;48.96
45071;BME280;30836;48.906;9.140;2022-10-16T02:45:34;984.83;;;23.96;49.00
45071;BME280;30836;48.906;9.140;2022-10-16T02:46:35;984.83;;;23.95;49.09
45071;BME280;30836;48.906;9.140;2022-10-16T02:47:35;984.83;;;23.95;49.10
45071;BME280;30836;48.906;9.140;2022-10-16T02:48:36;984.89;;;23.94;49.08
45071;BME280;30836;48.906;9.140;2022-10-16T02:49:36;984.93;;;23.93;49.09
45071;BME280;30836;48.906;9.140;2022-10-16T02:50:37;984.93;;;23.93;49.10
45071;BME280;30836;48.906;9.140;2022-10-16T02:51:37;984.91;;;23.93;49.10
45071;BME280;30836;48.906;9.140;2022-10-16T02:52:38;984.89;;;23.94;49.13
45071;BME280;30836;48.906;9.140;2022-10-16T02:53:38;984.89;;;23.93;49.11
45071;BME280;30836;48.906;9.140;2022-10-16T02:54:38;984.87;;;23.94;49.10
45071;BME280;30836;48.906;9.140;2022-10-16T02:55:39;984.87;;;23.94;49.03
45071;BME280;30836;48.906;9.140;2022-10-16T02:56:39;984.87;;;23.92;49.17
45071;BME280;30836;48.906;9.140;2022-10-16T02:57:40;984.85;;;23.90;49.26
45071;BME280;30836;48.906;9.140;2022-10-16T02:58:40;984.87;;;23.87;49.30
45071;BME280;30836;48.906;9.140;2022-10-16T02:59:41;984.91;;;23.86;49.28
45071;BME280;30836;48.906;9.140;2022-10-16T03:00:41;984.93;;;23.85;49.32
45071;BME280;30836;48.906;9.140;2022-10-16T03:01:42;984.93;;;23.86;49.32
45071;BME280;30836;48.906;9.140;2022-10-16T03:02:42;984.95;;;23.87;49.29
45071;BME280;30836;48.906;9.140;2022-10-16T03:03:43;984.95;;;23.87;49.26
45071;BME280;30836;48.906;9.140;2022-10-16T03:04:43;984.95;;;23.85;49.28
45071;BME280;30836;48.906;9.140;2022-10-16T03:05:44;984.95;;;23.84;49.27
45071;BME280;30836;48.906;9.140;2022-10-16T03:06:44;984.99;;;23.82;49.41
45071;BME280;30836;48.906;9.140;2022-10-16T03:07:45;985.01;;;23.79;49.49
45071;BME280;30836;48.906;9.140;2022-10-16T03:08:45;984.99;;;23.77;49.55
45071;BME280;30836;48.906;9.140;2022-10-16T03:09:46;984.97;;;23.76;49.44
45071;BME280;30836;48.906;9.140;2022-10-16T03:10:46;984.95;;;23.77;49.50
45071;BME280;30836;48.906;9.140;2022-10-16T03:11:46;984.95;;;23.76;49.52
45071;BME280;30836;48.906;9.140;2022-10-16T03:12:47;984.97;;;23.77;49.52
45071;BME280;30836;48.906;9.140;2022-10-16T03:13:47;984.99;;;23.79;49.41
45071;BME280;30836;48.906;9.140;2022-10-16T03:14:48;984.99;;;23.79;49.47
45071;BME280;30836;48.906;9.140;2022-10-16T03:15:48;985.01;;;23.77;49.49
45071;BME280;30836;48.906;9.140;2022-10-16T03:16:49;984.97;;;23.75;49.51
45071;BME280;30836;48.906;9.140;2022-10-16T03:17:49;984.99;;;23.75;49.57
45071;BME280;30836;48.906;9.140;2022-10-16T03:18:49;985.01;;;23.78;49.39
45071;BME280;30836;48.906;9.140;2022-10-16T03:19:50;984.97;;;23.81;49.42
45071;BME280;30836;48.906;9.140;2022-10-16T03:20:51;984.97;;;23.84;49.31
45071;BME280;30836;48.906;9.140;2022-10-16T03:21:51;984.95;;;23.86;49.28
45071;BME280;30836;48.906;9.140;2022-10-16T03:22:51;984.91;;;23.87;49.38
45071;BME280;30836;48.906;9.140;2022-10-16T03:23:52;984.93;;;23.86;49.42
45071;BME280;30836;48.906;9.140;2022-10-16T03:24:53;984.95;;;23.85;49.43
45071;BME280;30836;48.906;9.140;2022-10-16T03:25:53;984.95;;;23.86;49.41
45071;BME280;30836;48.906;9.140;2022-10-16T03:26:53;985.01;;;23.88;49.39
45071;BME280;30836;48.906;9.140;2022-10-16T03:27:54;985.01;;;23.89;49.36
45071;BME280;30836;48.906;9.140;2022-10-16T03:28:54;985.01;;;23.88;49.32
45071;BME280;30836;48.906;9.140;2022-10-16T03:29:55;985.01;;;23.85;49.44
45071;BME280;30836;48.906;9.140;2022-10-16T03:30:55;985.03;;;23.83;49.49
45071;BME280;30836;48.906;9.140;2022-10-16T03:31:56;985.03;;;23.81;49.50
45071;BME280;30836;48.906;9.140;2022-10-16T03:32:56;985.05;;;23.79;49.42
45071;BME280;30836;48.906;9.140;2022-10-16T03:33:57;985.05;;;23.78;49.45
45071;BME280;30836;48.906;9.140;2022-10-16T03:34:57;985.05;;;23.78;49.52
45071;BME280;30836;48.906;9.140;2022-10-16T03:35:58;985.05;;;23.78;49.53
45071;BME280;30836;48.906;9.140;2022-10-16T03:36:58;985.03;;;23.78;49.47
45071;BME280;30836;48.906;9.140;2022-10-16T03:37:59;985.01;;;23.79;49.45
45071;BME280;30836;48.906;9.140;2022-10-16T03:38:59;985.01;;;23.81;49.40
45071;BME280;30836;48.906;9.140;2022-10-16T03:40:00;985.01;;;23.81;49.43
45071;BME280;30836;48.906;9.140;2022-10-16T03:41:01;985.03;;;23.80;49.43
45071;BME280;30836;48.906;9.140;2022-10-16T03:42:01;985.03;;;23.80;49.43
45071;BME280;30836;48.906;9.140;2022-10-16T03:43:01;985.03;;;23.80;49.47
45071;BME280;30836;48.906;9.140;2022-10-16T03:44:02;985.01;;;23.80;49.41
45071;BME280;30836;48.906;9.140;2022-10-16T03:45:03;985.01;;;23.81;49.29
45071;BME280;30836;48.906;9.140;2022-10-16T03:46:04;985.01;;;23.82;49.35
45071;BME280;30836;48.906;9.140;2022-10-16T03:47:04;984.99;;;23.82;49.36
45071;BME280;30836;48.906;9.140;2022-10-16T03:48:05;985.01;;;23.81;49.45
45071;BME280;30836;48.906;9.140;2022-10-16T03:49:05;984.99;;;23.80;49.42
45071;BME280;30836;48.906;9.140;2022-10-16T03:50:06;984.99;;;23.81;49.33
45071;BME280;30836;48.906;9.140;2022-10-16T03:51:07;984.97;;;23.83;49.31
45071;BME280;30836;48.906;9.140;2022-10-16T03:52:07;984.99;;;23.85;49.18
45071;BME280;30836;48.906;9.140;2022-10-16T03:53:08;985.03;;;23.86;49.24
45071;BME280;30836;48.906;9.140;2022-10-16T03:54:09;985.05;;;23.85;49.24
45071;BME280;30836;48.906;9.140;2022-10-16T03:55:10;985.05;;;23.84;49.37
45071;BME280;30836;48.906;9.140;2022-10-16T03:56:11;985.03;;;23.84;49.33
45071;BME280;30836;48.906;9.140;2022-10-16T03:57:11;985.03;;;23.85;49.29
45071;BME280;30836;48.906;9.140;2022-10-16T03:58:12;985.03;;;23.85;49.25
45071;BME280;30836;48.906;9.140;2022-10-16T03:59:12;985.05;;;23.86;49.25
45071;BME280;30836;48.906;9.140;2022-10-16T04:00:13;985.03;;;23.87;49.19
45071;BME280;30836;48.906;9.140;2022-10-16T04:01:13;985.09;;;23.89;49.16
45071;BME280;30836;48.906;9.140;2022-10-16T04:02:14;985.07;;;23.91;49.07
45071;BME280;30836;48.906;9.140;2022-10-16T04:03:14;985.07;;;23.92;49.14
45071;BME280;30836;48.906;9.140;2022-10-16T04:04:15;985.07;;;23.93;49.15
45071;BME280;30836;48.906;9.140;2022-10-16T04:05:15;985.03;;;23.93;49.14
45071;BME280;30836;48.906;9.140;2022-10-16T04:06:16;985.05;;;23.92;49.21
45071;BME280;30836;48.906;9.140;2022-10-16T04:07:16;985.05;;;23.91;49.22
45071;BME280;30836;48.906;9.140;2022-10-16T04:08:17;985.05;;;23.91;49.20
45071;BME280;30836;48.906;9.140;2022-10-16T04:09:17;985.05;;;23.89;49.28
45071;BME280;30836;48.906;9.140;2022-10-16T04:10:18;985.07;;;23.88;49.31
45071;BME280;30836;48.906;9.140;2022-10-16T04:11:18;985.07;;;23.88;49.25
45071;BME280;30836;48.906;9.140;2022-10-16T04:12:19;985.09;;;23.89;49.24
45071;BME280;30836;48.906;9.140;2022-10-16T04:13:19;985.09;;;23.88;49.21
45071;BME280;30836;48.906;9.140;2022-10-16T04:14:20;985.09;;;23.88;49.20
45071;BME280;30836;48.906;9.140;2022-10-16T04:15:20;985.09;;;23.88;49.19
45071;BME280;30836;48.906;9.140;2022-10-16T04:16:20;985.09;;;23.87;49.27
45071;BME280;30836;48.906;9.140;2022-10-16T04:17:21;985.11;;;23.85;49.38
45071;BME280;30836;48.906;9.140;2022-10-16T04:18:21;985.09;;;23.83;49.40
45071;BME280;30836;48.906;9.140;2022-10-16T04:19:22;985.09;;;23.82;49.29
45071;BME280;30836;48.906;9.140;2022-10-16T04:20:22;985.09;;;23.82;49.32
45071;BME280;30836;48.906;9.140;2022-10-16T04:21:23;985.13;;;23.81;49.38
45071;BME280;30836;48.906;9.140;2022-10-16T04:22:23;985.13;;;23.78;49.44
45071;BME280;30836;48.906;9.140;2022-10-16T04:23:23;985.11;;;23.76;49.55
45071;BME280;30836;48.906;9.140;2022-10-16T04:24:24;985.09;;;23.74;49.52
45071;BME280;30836;48.906;9.140;2022-10-16T04:25:24;985.13;;;23.75;49.46
45071;BME280;30836;48.906;9.140;2022-10-16T04:26:25;985.09;;;23.75;49.39
45071;BME280;30836;48.906;9.140;2022-10-16T04:27:25;985.09;;;23.73;49.57
45071;BME280;30836;48.906;9.140;2022-10-16T04:28:26;985.05;;;23.70;49.68
45071;BME280;30836;48.906;9.140;2022-10-16T04:29:26;985.05;;;23.68;49.69
45071;BME280;30836;48.906;9.140;2022-10-16T04:30:27;985.05;;;23.65;49.82
45071;BME280;30836;48.906;9.140;2022-10-16T04:31:27;985.03;;;23.64;49.81
45071;BME280;30836;48.906;9.140;2022-10-16T04:32:28;985.05;;;23.65;49.75
45071;BME280;30836;48.906;9.140;2022-10-16T04:33:28;985.05;;;23.66;49.75
45071;BME280;30836;48.906;9.140;2022-10-16T04:34:28;985.07;;;23.67;49.70
45071;BME280;30836;48.906;9.140;2022-10-16T04:35:29;985.11;;;23.68;49.73
45071;BME280;30836;48.906;9.140;2022-10-16T04:36:29;985.13;;;23.68;49.71
45071;BME280;30836;48.906;9.140;2022-10-16T04:37:30;985.17;;;23.69;49.68
45071;BME280;30836;48.906;9.140;2022-10-16T04:38:30;985.19;;;23.69;49.66
45071;BME280;30836;48.906;9.140;2022-10-16T04:39:31;985.19;;;23.68;49.67
45071;BME280;30836;48.906;9.140;2022-10-16T04:40:31;985.21;;;23.68;49.67
45071;BME280;30836;48.906;9.140;2022-10-16T04:41:32;985.21;;;23.67;49.71
45071;BME280;30836;48.906;9.140;2022-10-16T04:42:32;985.21;;;23.67;49.67
45071;BME280;30836;48.906;9.140;2022-10-16T04:43:33;985.23;;;23.68;49.68
45071;BME280;30836;48.906;9.140;2022-10-16T04:44:34;985.21;;;23.70;49.55
45071;BME280;30836;48.906;9.140;2022-10-16T04:45:34;985.23;;;23.72;49.51
45071;BME280;30836;48.906;9.140;2022-10-16T04:46:34;985.23;;;23.71;49.67
45071;BME280;30836;48.906;9.140;2022-10-16T04:47:35;985.23;;;23.70;49.67
45071;BME280;30836;48.906;9.140;2022-10-16T04:48:35;985.23;;;23.70;49.75
45071;BME280;30836;48.906;9.140;2022-10-16T04:49:36;985.25;;;23.70;49.80
45071;BME280;30836;48.906;9.140;2022-10-16T04:50:36;985.29;;;23.70;49.84
45071;BME280;30836;48.906;9.140;2022-10-16T04:51:37;985.31;;;23.69;49.88
45071;BME280;30836;48.906;9.140;2022-10-16T04:52:37;985.31;;;23.67;49.90
45071;BME280;30836;48.906;9.140;2022-10-16T04:53:37;985.34;;;23.66;49.90
45071;BME280;30836;48.906;9.140;2022-10-16T04:54:38;985.36;;;23.65;49.91
45071;BME280;30836;48.906;9.140;2022-10-16T04:55:38;985.40;;;23.64;49.93
45071;BME280;30836;48.906;9.140;2022-10-16T04:56:40;985.40;;;23.63;49.95
45071;BME280;30836;48.906;9.140;2022-10-16T04:57:41;985.46;;;23.62;49.94
45071;BME280;30836;48.906;9.140;2022-10-16T04:58:41;985.50;;;23.61;49.94
45071;BME280;30836;48.906;9.140;2022-10-16T04:59:42;985.50;;;23.62;49.90
45071;BME280;30836;48.906;9.140;2022-10-16T05:00:43;985.50;;;23.62;49.90
45071;BME280;30836;48.906;9.140;2022-10-16T05:01:45;985.50;;;23.63;49.92
45071;BME280;30836;48.906;9.140;2022-10-16T05:02:45;985.52;;;23.62;49.92
45071;BME280;30836;48.906;9.140;2022-10-16T05:03:46;985.52;;;23.62;49.91
45071;BME280;30836;48.906;9.140;2022-10-16T05:04:46;985.56;;;23.63;49.89
45071;BME280;30836;48.906;9.140;2022-10-16T05:05:46;985.54;;;23.64;49.85
45071;BME280;30836;48.906;9.140;2022-10-16T05:06:47;985.56;;;23.65;49.83
45071;BME280;30836;48.906;9.140;2022-10-16T05:07:48;985.56;;;23.66;49.81
45071;BME280;30836;48.906;9.140;2022-10-16T05:08:48;985.56;;;23.67;49.79
45071;BME280;30836;48.906;9.140;2022-10-16T05:09:49;985.54;;;23.68;49.78
45071;BME280;30836;48.906;9.140;2022-10-16T05:10:49;985.54;;;23.70;49.74
45071;BME280;30836;48.906;9.140;2022-10-16T05:11:49;985.56;;;23.71;49.66
45071;BME280;30836;48.906;9.140;2022-10-16T05:12:50;985.54;;;23.71;49.74
45071;BME280;30836;48.906;9.140;2022-10-16T05:13:50;985.54;;;23.72;49.76
45071;BME280;30836;48.906;9.140;2022-10-16T05:14:51;985.54;;;23.71;49.78
45071;BME280;30836;48.906;9.140;2022-10-16T05:15:51;985.52;;;23.71;49.77
45071;BME280;30836;48.906;9.140;2022-10-16T05:16:52;985.52;;;23.71;49.81
45071;BME280;30836;48.906;9.140;2022-10-16T05:17:53;985.48;;;23.70;49.93
45071;BME280;30836;48.906;9.140;2022-10-16T05:18:54;985.48;;;23.67;50.06
45071;BME280;30836;48.906;9.140;2022-10-16T05:19:54;985.46;;;23.65;50.09
45071;BME280;30836;48.906;9.140;2022-10-16T05:20:55;985.42;;;23.62;50.33
45071;BME280;30836;48.906;9.140;2022-10-16T05:21:55;985.46;;;23.57;50.49
45071;BME280;30836;48.906;9.140;2022-10-16T05:22:55;985.44;;;23.52;50.53
45071;BME280;30836;48.906;9.140;2022-10-16T05:23:56;985.42;;;23.49;50.62
45071;BME280;30836;48.906;9.140;2022-10-16T05:24:56;985.42;;;23.46;50.62
45071;BME280;30836;48.906;9.140;2022-10-16T05:25:57;985.44;;;23.45;50.69
45071;BME280;30836;48.906;9.140;2022-10-16T05:26:58;985.46;;;23.43;50.73
45071;BME280;30836;48.906;9.140;2022-10-16T05:27:59;985.48;;;23.42;50.80
45071;BME280;30836;48.906;9.140;2022-10-16T05:28:59;985.48;;;23.42;50.73
45071;BME280;30836;48.906;9.140;2022-10-16T05:30:00;985.48;;;23.41;50.74
45071;BME280;30836;48.906;9.140;2022-10-16T05:31:04;985.48;;;23.39;50.78
45071;BME280;30836;48.906;9.140;2022-10-16T05:32:08;985.46;;;23.35;50.93
45071;BME280;30836;48.906;9.140;2022-10-16T05:33:08;985.46;;;23.32;50.97
45071;BME280;30836;48.906;9.140;2022-10-16T05:34:09;985.46;;;23.31;51.02
45071;BME280;30836;48.906;9.140;2022-10-16T05:35:09;985.48;;;23.31;51.04
45071;BME280;30836;48.906;9.140;2022-10-16T05:36:09;985.48;;;23.30;51.00
45071;BME280;30836;48.906;9.140;2022-10-16T05:37:11;985.52;;;23.31;50.93
45071;BME280;30836;48.906;9.140;2022-10-16T05:38:12;985.54;;;23.32;50.93
45071;BME280;30836;48.906;9.140;2022-10-16T05:39:13;985.56;;;23.33;50.85
45071;BME280;30836;48.906;9.140;2022-10-16T05:40:15;985.56;;;23.35;50.73
45071;BME280;30836;48.906;9.140;2022-10-16T05:41:15;985.56;;;23.37;50.69
45071;BME280;30836;48.906;9.140;2022-10-16T05:42:16;985.58;;;23.38;50.78
45071;BME280;30836;48.906;9.140;2022-10-16T05:43:16;985.58;;;23.38;50.74
45071;BME280;30836;48.906;9.140;2022-10-16T05:44:16;985.58;;;23.39;50.70
45071;BME280;30836;48.906;9.140;2022-10-16T05:45:17;985.58;;;23.38;50.69
45071;BME280;30836;48.906;9.140;2022-10-16T05:46:17;985.54;;;23.36;50.71
45071;BME280;30836;48.906;9.140;2022-10-16T05:47:18;985.56;;;23.37;50.68
45071;BME280;30836;48.906;9.140;2022-10-16T05:48:19;985.56;;;23.46;50.35
45071;BME280;30836;48.906;9.140;2022-10-16T05:49:19;985.58;;;23.59;49.98
45071;BME280;30836;48.906;9.140;2022-10-16T05:50:20;985.60;;;23.73;49.56
45071;BME280;30836;48.906;9.140;2022-10-16T05:51:20;985.62;;;23.86;49.36
45071;BME280;30836;48.906;9.140;2022-10-16T05:52:21;985.62;;;23.97;49.14
45071;BME280;30836;48.906;9.140;2022-10-16T05:53:21;985.66;;;24.06;48.97
45071;BME280;30836;48.906;9.140;2022-10-16T05:54:22;985.68;;;24.13;48.75
45071;BME280;30836;48.906;9.140;2022-10-16T05:55:22;985.68;;;24.19;48.69
45071;BME280;30836;48.906;9.140;2022-10-16T05:56:23;985.70;;;24.25;48.53